Friday, July 20, 2018, 4:56 AM EDT
Back to Local

KSBY, Salisbury-wicomico Cty Reg

Location: Salisbury, MD, United States Lat: 38.333
Local Time: 4:56 AM EDT ( 8:56 GMT) Lon: -75.5
Time Zone: US/Eastern Elev: 52 ft

Show me the last for .
Show Decoded

2018-07-20 03:54 METAR KSBY 200754Z AUTO 00000KT 10SM CLR 17/16 A3011 RMK AO2 SLP197 T01670156 =
2018-07-20 02:54 METAR KSBY 200654Z AUTO 00000KT 10SM CLR 17/16 A3011 RMK AO2 SLP198 T01670156 =
2018-07-20 01:54 METAR KSBY 200554Z AUTO 00000KT 10SM CLR 18/16 A3011 RMK AO2 SLP198 T01780161
                 10244 20172 50001 =
2018-07-20 00:54 METAR KSBY 200454Z AUTO 00000KT 10SM CLR 18/16 A3012 RMK AO2 SLP201 T01780161
                 403110172 =
2018-07-19 23:54 METAR KSBY 200354Z AUTO 10003KT 10SM CLR 18/16 A3011 RMK AO2 SLP198 T01830161 =
2018-07-19 22:54 METAR KSBY 200254Z AUTO 00000KT 10SM CLR 19/17 A3011 RMK AO2 SLP197 T01940167
                 53011 =
2018-07-19 21:54 METAR KSBY 200154Z 00000KT 10SM CLR 21/17 A3010 RMK AO2 SLP195 T02060167 =
2018-07-19 20:54 METAR KSBY 200054Z 10003KT 10SM CLR 22/17 A3008 RMK AO2 SLP188 T02220167 =
2018-07-19 19:54 METAR KSBY 192354Z 14005KT 10SM CLR 24/16 A3007 RMK AO2 SLP186 T02440161 10311
                 20244 53005 =
2018-07-19 18:54 METAR KSBY 192254Z 14007KT 10SM BKN055 26/16 A3007 RMK AO2 SLP183 T02610156 =
2018-07-19 17:54 METAR KSBY 192154Z 14006KT 10SM BKN070 27/16 A3006 RMK AO2 SLP181 T02720161 =
2018-07-19 16:54 METAR KSBY 192054Z 13006KT 10SM CLR 29/16 A3006 RMK AO2 SLP181 T02940156 58004 =
2018-07-19 15:54 METAR KSBY 191954Z 16007KT 10SM BKN065 29/16 A3006 RMK AO2 SLP181 T02940161 =
2018-07-19 14:54 METAR KSBY 191854Z VRB06KT 10SM CLR 31/12 A3007 RMK AO2 SLP185 T03060122 =
2018-07-19 13:54 METAR KSBY 191754Z 10SM SCT070 31/12 A3007 RMK AO2 SLP185 T03060117 10306 20228
                 58006 =
2018-07-19 12:54 METAR KSBY 191654Z 11005KT 10SM FEW070 30/11 A3008 RMK AO2 SLP187 T03000111 =
2018-07-19 11:54 METAR KSBY 191554Z 35007KT 10SM CLR 30/12 A3009 RMK AO2 SLP190 T03000122 =
2018-07-19 10:54 METAR KSBY 191454Z 07005KT 10SM CLR 28/14 A3009 RMK AO2 SLP192 T02830144 51012 =
2018-07-19 09:54 METAR KSBY 191354Z VRB05KT 10SM CLR 28/16 A3008 RMK AO2 SLP188 T02780156 =
2018-07-19 08:54 METAR KSBY 191254Z 07006KT 10SM CLR 25/16 A3007 RMK AO2 SLP185 T02500161 =
2018-07-19 07:54 METAR KSBY 191154Z 04006KT 10SM SCT075 23/17 A3006 RMK AO2 SLP180 T02280167
                 10228 20189 53014 =
2018-07-19 06:54 METAR KSBY 191054Z 04003KT 10SM BKN075 21/17 A3004 RMK AO2 SLP175 T02060167 =
2018-07-19 05:54 METAR KSBY 190954Z 01004KT 7SM CLR 19/19 A3003 RMK AO2 SLP169 T01940189 =

Support USWX by starting your Amazon purchase here.